sensor_id;sensor_type;location;lat;lon;timestamp;P1;durP1;ratioP1;P2;durP2;ratioP2
73397;SDS011;63606;52.328;20.964;2022-09-30T00:01:30;53.28;;;22.25;;
73397;SDS011;63606;52.328;20.964;2022-09-30T00:03:57;52.25;;;23.73;;
73397;SDS011;63606;52.328;20.964;2022-09-30T00:06:24;59.53;;;24.52;;
73397;SDS011;63606;52.328;20.964;2022-09-30T00:08:51;52.85;;;22.92;;
73397;SDS011;63606;52.328;20.964;2022-09-30T00:11:21;57.08;;;24.55;;
73397;SDS011;63606;52.328;20.964;2022-09-30T00:13:50;45.78;;;21.35;;
73397;SDS011;63606;52.328;20.964;2022-09-30T00:16:16;53.50;;;22.90;;
73397;SDS011;63606;52.328;20.964;2022-09-30T00:18:44;48.88;;;21.42;;
73397;SDS011;63606;52.328;20.964;2022-09-30T00:21:10;50.85;;;22.38;;
73397;SDS011;63606;52.328;20.964;2022-09-30T00:23:37;54.55;;;22.42;;
73397;SDS011;63606;52.328;20.964;2022-09-30T00:26:05;54.65;;;21.92;;
73397;SDS011;63606;52.328;20.964;2022-09-30T00:28:32;47.13;;;21.88;;
73397;SDS011;63606;52.328;20.964;2022-09-30T00:31:02;52.28;;;22.50;;
73397;SDS011;63606;52.328;20.964;2022-09-30T00:33:30;53.90;;;22.10;;
73397;SDS011;63606;52.328;20.964;2022-09-30T00:35:56;49.67;;;21.40;;
73397;SDS011;63606;52.328;20.964;2022-09-30T00:38:21;43.45;;;20.05;;
73397;SDS011;63606;52.328;20.964;2022-09-30T00:40:47;51.35;;;20.20;;
73397;SDS011;63606;52.328;20.964;2022-09-30T00:43:15;48.20;;;21.55;;
73397;SDS011;63606;52.328;20.964;2022-09-30T00:45:53;48.60;;;21.38;;
73397;SDS011;63606;52.328;20.964;2022-09-30T00:48:25;44.78;;;20.60;;
73397;SDS011;63606;52.328;20.964;2022-09-30T00:50:57;44.78;;;21.05;;
73397;SDS011;63606;52.328;20.964;2022-09-30T00:56:18;46.95;;;21.33;;
73397;SDS011;63606;52.328;20.964;2022-09-30T00:59:07;42.50;;;19.55;;
73397;SDS011;63606;52.328;20.964;2022-09-30T01:01:37;50.50;;;20.23;;
73397;SDS011;63606;52.328;20.964;2022-09-30T01:04:05;51.30;;;22.40;;
73397;SDS011;63606;52.328;20.964;2022-09-30T01:06:39;41.97;;;20.08;;
73397;SDS011;63606;52.328;20.964;2022-09-30T01:09:05;50.53;;;22.52;;
73397;SDS011;63606;52.328;20.964;2022-09-30T01:11:31;45.08;;;20.20;;
73397;SDS011;63606;52.328;20.964;2022-09-30T01:14:20;43.72;;;18.23;;
73397;SDS011;63606;52.328;20.964;2022-09-30T01:22:08;48.75;;;22.33;;
73397;SDS011;63606;52.328;20.964;2022-09-30T01:38:08;53.95;;;24.48;;
73397;SDS011;63606;52.328;20.964;2022-09-30T01:46:07;52.42;;;23.88;;
73397;SDS011;63606;52.328;20.964;2022-09-30T01:48:56;52.25;;;23.80;;
73397;SDS011;63606;52.328;20.964;2022-09-30T01:54:11;50.60;;;23.13;;
73397;SDS011;63606;52.328;20.964;2022-09-30T02:01:54;49.20;;;22.67;;
73397;SDS011;63606;52.328;20.964;2022-09-30T02:04:28;53.35;;;22.60;;
73397;SDS011;63606;52.328;20.964;2022-09-30T02:07:00;58.92;;;24.58;;
73397;SDS011;63606;52.328;20.964;2022-09-30T02:09:32;53.78;;;22.90;;
73397;SDS011;63606;52.328;20.964;2022-09-30T02:12:05;49.85;;;22.77;;
73397;SDS011;63606;52.328;20.964;2022-09-30T02:14:56;56.65;;;23.65;;
73397;SDS011;63606;52.328;20.964;2022-09-30T02:17:34;50.78;;;23.30;;
73397;SDS011;63606;52.328;20.964;2022-09-30T02:20:05;47.75;;;21.05;;
73397;SDS011;63606;52.328;20.964;2022-09-30T02:22:36;48.58;;;21.27;;
73397;SDS011;63606;52.328;20.964;2022-09-30T02:25:07;48.75;;;22.58;;
73397;SDS011;63606;52.328;20.964;2022-09-30T02:27:38;42.55;;;20.92;;
73397;SDS011;63606;52.328;20.964;2022-09-30T02:30:09;47.58;;;20.23;;
73397;SDS011;63606;52.328;20.964;2022-09-30T02:33:11;44.60;;;20.98;;
73397;SDS011;63606;52.328;20.964;2022-09-30T02:35:40;46.25;;;21.60;;
73397;SDS011;63606;52.328;20.964;2022-09-30T02:38:15;46.60;;;21.20;;
73397;SDS011;63606;52.328;20.964;2022-09-30T02:40:45;50.40;;;21.25;;
73397;SDS011;63606;52.328;20.964;2022-09-30T02:43:14;52.35;;;22.35;;
73397;SDS011;63606;52.328;20.964;2022-09-30T02:45:46;40.53;;;19.92;;
73397;SDS011;63606;52.328;20.964;2022-09-30T02:50:56;42.53;;;19.90;;
73397;SDS011;63606;52.328;20.964;2022-09-30T02:58:41;45.80;;;20.67;;
73397;SDS011;63606;52.328;20.964;2022-09-30T03:01:17;51.67;;;22.67;;
73397;SDS011;63606;52.328;20.964;2022-09-30T03:03:56;48.38;;;21.88;;
73397;SDS011;63606;52.328;20.964;2022-09-30T03:06:26;47.58;;;23.15;;
73397;SDS011;63606;52.328;20.964;2022-09-30T03:08:53;51.83;;;22.67;;
73397;SDS011;63606;52.328;20.964;2022-09-30T03:11:20;47.22;;;22.50;;
73397;SDS011;63606;52.328;20.964;2022-09-30T03:22:03;51.22;;;23.42;;
73397;SDS011;63606;52.328;20.964;2022-09-30T03:24:54;47.47;;;21.98;;
73397;SDS011;63606;52.328;20.964;2022-09-30T03:27:38;46.05;;;20.73;;
73397;SDS011;63606;52.328;20.964;2022-09-30T03:30:14;49.45;;;21.63;;
73397;SDS011;63606;52.328;20.964;2022-09-30T03:46:39;52.53;;;21.73;;
73397;SDS011;63606;52.328;20.964;2022-09-30T03:49:17;49.28;;;22.42;;
73397;SDS011;63606;52.328;20.964;2022-09-30T03:51:51;46.60;;;21.65;;
73397;SDS011;63606;52.328;20.964;2022-09-30T03:54:18;49.50;;;22.52;;
73397;SDS011;63606;52.328;20.964;2022-09-30T03:56:44;54.03;;;22.10;;
73397;SDS011;63606;52.328;20.964;2022-09-30T03:59:21;48.65;;;21.25;;
73397;SDS011;63606;52.328;20.964;2022-09-30T04:01:49;51.53;;;23.08;;
73397;SDS011;63606;52.328;20.964;2022-09-30T04:04:15;46.33;;;22.38;;
73397;SDS011;63606;52.328;20.964;2022-09-30T04:06:42;44.88;;;21.33;;
73397;SDS011;63606;52.328;20.964;2022-09-30T04:09:07;53.45;;;22.83;;
73397;SDS011;63606;52.328;20.964;2022-09-30T04:11:33;47.63;;;21.83;;
73397;SDS011;63606;52.328;20.964;2022-09-30T04:13:59;51.10;;;22.02;;
73397;SDS011;63606;52.328;20.964;2022-09-30T04:16:27;53.67;;;23.27;;
73397;SDS011;63606;52.328;20.964;2022-09-30T04:18:53;47.38;;;22.10;;
73397;SDS011;63606;52.328;20.964;2022-09-30T04:21:20;50.08;;;22.60;;
73397;SDS011;63606;52.328;20.964;2022-09-30T04:23:46;48.53;;;22.02;;
73397;SDS011;63606;52.328;20.964;2022-09-30T04:28:34;50.78;;;22.08;;
73397;SDS011;63606;52.328;20.964;2022-09-30T04:31:00;52.72;;;21.92;;
73397;SDS011;63606;52.328;20.964;2022-09-30T04:33:27;49.50;;;22.17;;
73397;SDS011;63606;52.328;20.964;2022-09-30T04:35:54;55.25;;;23.73;;
73397;SDS011;63606;52.328;20.964;2022-09-30T04:38:21;56.35;;;24.13;;
73397;SDS011;63606;52.328;20.964;2022-09-30T04:40:48;48.88;;;21.65;;
73397;SDS011;63606;52.328;20.964;2022-09-30T04:43:15;50.95;;;23.30;;
73397;SDS011;63606;52.328;20.964;2022-09-30T04:45:43;52.00;;;23.02;;
73397;SDS011;63606;52.328;20.964;2022-09-30T04:48:10;53.13;;;22.77;;
73397;SDS011;63606;52.328;20.964;2022-09-30T04:50:36;47.00;;;20.55;;
73397;SDS011;63606;52.328;20.964;2022-09-30T04:53:02;56.97;;;23.88;;
73397;SDS011;63606;52.328;20.964;2022-09-30T04:55:30;57.70;;;24.30;;
73397;SDS011;63606;52.328;20.964;2022-09-30T04:57:56;58.47;;;24.65;;
73397;SDS011;63606;52.328;20.964;2022-09-30T05:00:21;55.60;;;24.65;;
73397;SDS011;63606;52.328;20.964;2022-09-30T05:02:49;56.92;;;24.73;;
73397;SDS011;63606;52.328;20.964;2022-09-30T05:05:14;52.03;;;24.77;;
73397;SDS011;63606;52.328;20.964;2022-09-30T05:07:40;55.42;;;24.75;;
73397;SDS011;63606;52.328;20.964;2022-09-30T05:10:06;59.65;;;25.38;;
73397;SDS011;63606;52.328;20.964;2022-09-30T05:12:32;59.10;;;24.20;;
73397;SDS011;63606;52.328;20.964;2022-09-30T05:14:58;56.60;;;26.10;;
73397;SDS011;63606;52.328;20.964;2022-09-30T05:17:24;57.38;;;23.02;;
73397;SDS011;63606;52.328;20.964;2022-09-30T05:19:50;54.78;;;23.92;;
73397;SDS011;63606;52.328;20.964;2022-09-30T05:22:15;53.25;;;22.95;;
73397;SDS011;63606;52.328;20.964;2022-09-30T05:24:41;56.30;;;24.02;;
73397;SDS011;63606;52.328;20.964;2022-09-30T05:27:06;56.03;;;23.55;;
73397;SDS011;63606;52.328;20.964;2022-09-30T05:29:32;57.17;;;22.45;;
73397;SDS011;63606;52.328;20.964;2022-09-30T05:31:58;55.50;;;24.20;;
73397;SDS011;63606;52.328;20.964;2022-09-30T05:34:23;58.22;;;26.13;;
73397;SDS011;63606;52.328;20.964;2022-09-30T05:36:49;50.75;;;22.80;;
73397;SDS011;63606;52.328;20.964;2022-09-30T05:39:14;51.67;;;22.88;;
73397;SDS011;63606;52.328;20.964;2022-09-30T05:41:40;54.42;;;24.25;;
73397;SDS011;63606;52.328;20.964;2022-09-30T05:44:06;55.28;;;23.35;;
73397;SDS011;63606;52.328;20.964;2022-09-30T05:46:33;52.17;;;23.08;;
73397;SDS011;63606;52.328;20.964;2022-09-30T05:48:59;62.42;;;25.10;;
73397;SDS011;63606;52.328;20.964;2022-09-30T05:51:25;61.53;;;23.50;;
73397;SDS011;63606;52.328;20.964;2022-09-30T05:53:50;60.92;;;25.65;;
73397;SDS011;63606;52.328;20.964;2022-09-30T05:56:16;54.90;;;23.33;;
73397;SDS011;63606;52.328;20.964;2022-09-30T05:58:42;56.20;;;24.95;;
73397;SDS011;63606;52.328;20.964;2022-09-30T06:01:09;52.28;;;23.13;;
73397;SDS011;63606;52.328;20.964;2022-09-30T06:03:36;60.70;;;25.13;;
73397;SDS011;63606;52.328;20.964;2022-09-30T06:06:02;54.58;;;23.10;;
73397;SDS011;63606;52.328;20.964;2022-09-30T06:08:29;55.08;;;23.10;;
73397;SDS011;63606;52.328;20.964;2022-09-30T06:10:55;54.95;;;23.58;;
73397;SDS011;63606;52.328;20.964;2022-09-30T06:13:23;56.75;;;22.42;;
73397;SDS011;63606;52.328;20.964;2022-09-30T06:15:56;62.55;;;23.48;;
73397;SDS011;63606;52.328;20.964;2022-09-30T06:18:23;59.88;;;22.75;;
73397;SDS011;63606;52.328;20.964;2022-09-30T06:20:50;56.90;;;22.60;;
73397;SDS011;63606;52.328;20.964;2022-09-30T06:23:16;55.88;;;22.52;;
73397;SDS011;63606;52.328;20.964;2022-09-30T06:25:42;57.03;;;22.63;;
73397;SDS011;63606;52.328;20.964;2022-09-30T06:28:08;60.50;;;24.35;;
73397;SDS011;63606;52.328;20.964;2022-09-30T06:30:34;60.42;;;23.45;;
73397;SDS011;63606;52.328;20.964;2022-09-30T06:32:59;68.68;;;26.73;;
73397;SDS011;63606;52.328;20.964;2022-09-30T06:35:25;75.38;;;27.50;;
73397;SDS011;63606;52.328;20.964;2022-09-30T06:37:52;69.00;;;25.40;;
73397;SDS011;63606;52.328;20.964;2022-09-30T06:40:18;60.13;;;26.80;;
73397;SDS011;63606;52.328;20.964;2022-09-30T06:42:48;70.28;;;27.60;;
73397;SDS011;63606;52.328;20.964;2022-09-30T06:45:14;61.47;;;25.92;;
73397;SDS011;63606;52.328;20.964;2022-09-30T06:47:40;55.45;;;24.25;;
73397;SDS011;63606;52.328;20.964;2022-09-30T06:50:06;60.38;;;26.83;;
73397;SDS011;63606;52.328;20.964;2022-09-30T06:52:32;59.75;;;25.55;;
73397;SDS011;63606;52.328;20.964;2022-09-30T06:54:57;57.30;;;26.13;;
73397;SDS011;63606;52.328;20.964;2022-09-30T06:57:23;57.90;;;24.92;;
73397;SDS011;63606;52.328;20.964;2022-09-30T06:59:50;51.25;;;23.10;;
73397;SDS011;63606;52.328;20.964;2022-09-30T07:02:16;55.13;;;23.85;;
73397;SDS011;63606;52.328;20.964;2022-09-30T07:04:42;51.35;;;23.73;;
73397;SDS011;63606;52.328;20.964;2022-09-30T07:07:07;59.38;;;24.25;;
73397;SDS011;63606;52.328;20.964;2022-09-30T07:09:33;57.70;;;23.10;;
73397;SDS011;63606;52.328;20.964;2022-09-30T07:11:58;58.42;;;23.33;;
73397;SDS011;63606;52.328;20.964;2022-09-30T07:14:24;55.58;;;23.17;;
73397;SDS011;63606;52.328;20.964;2022-09-30T07:16:50;63.53;;;24.45;;
73397;SDS011;63606;52.328;20.964;2022-09-30T07:19:17;63.25;;;24.52;;
73397;SDS011;63606;52.328;20.964;2022-09-30T07:21:47;56.90;;;22.15;;
73397;SDS011;63606;52.328;20.964;2022-09-30T07:24:14;60.97;;;23.52;;
73397;SDS011;63606;52.328;20.964;2022-09-30T07:26:39;48.90;;;20.08;;
73397;SDS011;63606;52.328;20.964;2022-09-30T07:29:05;54.28;;;23.23;;
73397;SDS011;63606;52.328;20.964;2022-09-30T07:31:31;56.72;;;23.48;;
73397;SDS011;63606;52.328;20.964;2022-09-30T07:33:58;52.75;;;23.75;;
73397;SDS011;63606;52.328;20.964;2022-09-30T07:36:24;53.88;;;22.77;;
73397;SDS011;63606;52.328;20.964;2022-09-30T07:38:56;44.90;;;20.70;;
73397;SDS011;63606;52.328;20.964;2022-09-30T07:41:23;44.40;;;21.55;;
73397;SDS011;63606;52.328;20.964;2022-09-30T07:43:53;46.40;;;20.90;;
73397;SDS011;63606;52.328;20.964;2022-09-30T07:46:24;40.85;;;20.13;;
73397;SDS011;63606;52.328;20.964;2022-09-30T07:48:53;37.42;;;19.10;;
73397;SDS011;63606;52.328;20.964;2022-09-30T07:51:27;35.25;;;17.58;;
73397;SDS011;63606;52.328;20.964;2022-09-30T07:53:56;42.05;;;19.05;;
73397;SDS011;63606;52.328;20.964;2022-09-30T07:56:23;37.92;;;19.67;;
73397;SDS011;63606;52.328;20.964;2022-09-30T07:58:54;38.70;;;20.85;;
73397;SDS011;63606;52.328;20.964;2022-09-30T08:01:23;41.20;;;20.95;;
73397;SDS011;63606;52.328;20.964;2022-09-30T08:03:51;35.47;;;18.77;;
73397;SDS011;63606;52.328;20.964;2022-09-30T08:06:19;33.80;;;18.48;;
73397;SDS011;63606;52.328;20.964;2022-09-30T08:08:46;37.38;;;18.85;;
73397;SDS011;63606;52.328;20.964;2022-09-30T08:11:12;34.92;;;17.75;;
73397;SDS011;63606;52.328;20.964;2022-09-30T08:13:39;37.08;;;18.55;;
73397;SDS011;63606;52.328;20.964;2022-09-30T08:16:05;32.25;;;17.42;;
73397;SDS011;63606;52.328;20.964;2022-09-30T08:18:31;30.88;;;15.80;;
73397;SDS011;63606;52.328;20.964;2022-09-30T08:21:00;34.90;;;18.13;;
73397;SDS011;63606;52.328;20.964;2022-09-30T08:23:27;32.58;;;16.80;;
73397;SDS011;63606;52.328;20.964;2022-09-30T08:25:58;36.15;;;16.58;;
73397;SDS011;63606;52.328;20.964;2022-09-30T08:28:25;38.15;;;18.15;;
73397;SDS011;63606;52.328;20.964;2022-09-30T08:30:51;31.98;;;17.83;;
73397;SDS011;63606;52.328;20.964;2022-09-30T08:33:16;38.13;;;18.08;;
73397;SDS011;63606;52.328;20.964;2022-09-30T08:35:42;32.53;;;17.17;;
73397;SDS011;63606;52.328;20.964;2022-09-30T08:38:07;35.20;;;16.60;;
73397;SDS011;63606;52.328;20.964;2022-09-30T08:40:33;31.35;;;15.02;;
73397;SDS011;63606;52.328;20.964;2022-09-30T08:46:47;34.10;;;17.02;;
73397;SDS011;63606;52.328;20.964;2022-09-30T08:51:51;33.85;;;16.55;;
73397;SDS011;63606;52.328;20.964;2022-09-30T08:54:19;34.28;;;16.98;;
73397;SDS011;63606;52.328;20.964;2022-09-30T09:04:51;33.30;;;16.13;;
73397;SDS011;63606;52.328;20.964;2022-09-30T09:07:44;33.92;;;17.83;;
73397;SDS011;63606;52.328;20.964;2022-09-30T09:12:55;27.63;;;15.68;;
73397;SDS011;63606;52.328;20.964;2022-09-30T09:15:48;29.90;;;17.00;;
73397;SDS011;63606;52.328;20.964;2022-09-30T09:23:56;35.20;;;17.65;;
73397;SDS011;63606;52.328;20.964;2022-09-30T09:26:24;33.30;;;16.67;;
73397;SDS011;63606;52.328;20.964;2022-09-30T09:31:22;32.97;;;17.70;;
73397;SDS011;63606;52.328;20.964;2022-09-30T09:33:49;27.73;;;16.80;;
73397;SDS011;63606;52.328;20.964;2022-09-30T09:41:32;32.42;;;17.35;;
73397;SDS011;63606;52.328;20.964;2022-09-30T09:47:10;31.08;;;15.98;;
73397;SDS011;63606;52.328;20.964;2022-09-30T09:49:57;29.63;;;17.10;;
73397;SDS011;63606;52.328;20.964;2022-09-30T09:55:18;27.25;;;15.48;;
73397;SDS011;63606;52.328;20.964;2022-09-30T09:57:46;29.00;;;16.95;;
73397;SDS011;63606;52.328;20.964;2022-09-30T10:00:21;27.15;;;15.23;;
73397;SDS011;63606;52.328;20.964;2022-09-30T10:03:12;29.10;;;15.88;;
73397;SDS011;63606;52.328;20.964;2022-09-30T10:05:42;32.78;;;15.73;;
73397;SDS011;63606;52.328;20.964;2022-09-30T10:13:18;24.23;;;13.02;;
73397;SDS011;63606;52.328;20.964;2022-09-30T10:15:49;23.30;;;13.32;;
73397;SDS011;63606;52.328;20.964;2022-09-30T10:18:27;22.95;;;13.60;;
73397;SDS011;63606;52.328;20.964;2022-09-30T10:20:57;27.80;;;14.25;;
73397;SDS011;63606;52.328;20.964;2022-09-30T10:23:26;25.92;;;13.45;;
73397;SDS011;63606;52.328;20.964;2022-09-30T10:26:04;22.33;;;13.27;;
73397;SDS011;63606;52.328;20.964;2022-09-30T10:28:45;21.88;;;12.68;;
73397;SDS011;63606;52.328;20.964;2022-09-30T10:31:35;21.35;;;11.50;;
73397;SDS011;63606;52.328;20.964;2022-09-30T10:36:51;21.67;;;10.55;;
73397;SDS011;63606;52.328;20.964;2022-09-30T10:40:00;20.63;;;11.73;;
73397;SDS011;63606;52.328;20.964;2022-09-30T10:44:48;18.15;;;10.18;;
73397;SDS011;63606;52.328;20.964;2022-09-30T10:47:19;19.33;;;9.70;;
73397;SDS011;63606;52.328;20.964;2022-09-30T10:49:47;16.98;;;9.88;;
73397;SDS011;63606;52.328;20.964;2022-09-30T10:52:17;20.42;;;10.75;;
73397;SDS011;63606;52.328;20.964;2022-09-30T10:57:20;17.70;;;10.77;;
73397;SDS011;63606;52.328;20.964;2022-09-30T10:59:50;17.77;;;10.15;;
73397;SDS011;63606;52.328;20.964;2022-09-30T11:05:13;20.00;;;9.13;;
73397;SDS011;63606;52.328;20.964;2022-09-30T11:07:44;15.68;;;9.43;;
73397;SDS011;63606;52.328;20.964;2022-09-30T11:10:24;15.68;;;9.13;;
73397;SDS011;63606;52.328;20.964;2022-09-30T11:15:30;14.77;;;8.00;;
73397;SDS011;63606;52.328;20.964;2022-09-30T11:18:05;13.55;;;8.05;;
73397;SDS011;63606;52.328;20.964;2022-09-30T11:20:53;17.63;;;8.10;;
73397;SDS011;63606;52.328;20.964;2022-09-30T11:23:28;12.85;;;7.45;;
73397;SDS011;63606;52.328;20.964;2022-09-30T11:34:55;13.73;;;7.70;;
73397;SDS011;63606;52.328;20.964;2022-09-30T11:40:29;12.75;;;7.53;;
73397;SDS011;63606;52.328;20.964;2022-09-30T11:43:06;14.20;;;7.70;;
73397;SDS011;63606;52.328;20.964;2022-09-30T11:50:48;12.32;;;6.30;;
73397;SDS011;63606;52.328;20.964;2022-09-30T11:53:26;11.93;;;6.63;;
73397;SDS011;63606;52.328;20.964;2022-09-30T11:58:57;12.70;;;6.55;;
73397;SDS011;63606;52.328;20.964;2022-09-30T12:01:33;10.95;;;6.47;;
73397;SDS011;63606;52.328;20.964;2022-09-30T12:06:35;10.50;;;5.75;;
73397;SDS011;63606;52.328;20.964;2022-09-30T12:12:13;12.05;;;6.63;;
73397;SDS011;63606;52.328;20.964;2022-09-30T12:14:46;10.75;;;5.45;;
73397;SDS011;63606;52.328;20.964;2022-09-30T12:19:52;14.10;;;6.68;;
73397;SDS011;63606;52.328;20.964;2022-09-30T12:24:59;9.57;;;4.90;;
73397;SDS011;63606;52.328;20.964;2022-09-30T12:27:44;9.55;;;5.85;;
73397;SDS011;63606;52.328;20.964;2022-09-30T12:30:21;11.82;;;6.10;;
73397;SDS011;63606;52.328;20.964;2022-09-30T12:35:43;9.43;;;5.40;;
73397;SDS011;63606;52.328;20.964;2022-09-30T12:41:56;11.18;;;5.43;;
73397;SDS011;63606;52.328;20.964;2022-09-30T12:47:31;10.13;;;5.40;;
73397;SDS011;63606;52.328;20.964;2022-09-30T12:50:10;9.85;;;5.30;;
73397;SDS011;63606;52.328;20.964;2022-09-30T12:52:39;9.65;;;5.40;;
73397;SDS011;63606;52.328;20.964;2022-09-30T12:55:12;8.57;;;5.25;;
73397;SDS011;63606;52.328;20.964;2022-09-30T12:57:43;10.48;;;5.18;;
73397;SDS011;63606;52.328;20.964;2022-09-30T13:03:03;9.10;;;4.85;;
73397;SDS011;63606;52.328;20.964;2022-09-30T13:20:53;6.60;;;4.72;;
73397;SDS011;63606;52.328;20.964;2022-09-30T13:31:24;8.43;;;4.70;;
73397;SDS011;63606;52.328;20.964;2022-09-30T13:36:28;8.73;;;5.30;;
73397;SDS011;63606;52.328;20.964;2022-09-30T13:39:15;8.80;;;5.15;;
73397;SDS011;63606;52.328;20.964;2022-09-30T13:48:17;8.70;;;5.00;;
73397;SDS011;63606;52.328;20.964;2022-09-30T13:50:48;9.88;;;5.10;;
73397;SDS011;63606;52.328;20.964;2022-09-30T13:53:33;7.68;;;4.80;;
73397;SDS011;63606;52.328;20.964;2022-09-30T13:59:05;8.60;;;5.05;;
73397;SDS011;63606;52.328;20.964;2022-09-30T14:07:48;9.45;;;5.07;;
73397;SDS011;63606;52.328;20.964;2022-09-30T14:24:41;9.40;;;4.93;;
73397;SDS011;63606;52.328;20.964;2022-09-30T14:26:55;10.32;;;5.05;;
73397;SDS011;63606;52.328;20.964;2022-09-30T14:32:39;9.05;;;5.40;;
73397;SDS011;63606;52.328;20.964;2022-09-30T14:35:10;10.63;;;4.93;;
73397;SDS011;63606;52.328;20.964;2022-09-30T14:37:43;7.68;;;4.85;;
73397;SDS011;63606;52.328;20.964;2022-09-30T14:40:15;7.95;;;4.75;;
73397;SDS011;63606;52.328;20.964;2022-09-30T14:42:49;10.95;;;5.88;;
73397;SDS011;63606;52.328;20.964;2022-09-30T14:45:25;11.60;;;6.07;;
73397;SDS011;63606;52.328;20.964;2022-09-30T14:47:53;12.35;;;7.07;;
73397;SDS011;63606;52.328;20.964;2022-09-30T14:50:27;9.75;;;5.65;;
73397;SDS011;63606;52.328;20.964;2022-09-30T14:52:55;13.05;;;6.60;;
73397;SDS011;63606;52.328;20.964;2022-09-30T15:01:33;11.75;;;5.15;;
73397;SDS011;63606;52.328;20.964;2022-09-30T15:03:40;7.90;;;4.78;;
73397;SDS011;63606;52.328;20.964;2022-09-30T15:06:18;8.05;;;4.78;;
73397;SDS011;63606;52.328;20.964;2022-09-30T15:08:47;9.82;;;4.72;;
73397;SDS011;63606;52.328;20.964;2022-09-30T15:11:18;9.40;;;4.40;;
73397;SDS011;63606;52.328;20.964;2022-09-30T15:13:45;8.52;;;5.22;;
73397;SDS011;63606;52.328;20.964;2022-09-30T15:16:26;9.73;;;5.40;;
73397;SDS011;63606;52.328;20.964;2022-09-30T15:18:54;8.80;;;5.13;;
73397;SDS011;63606;52.328;20.964;2022-09-30T15:21:20;9.45;;;5.05;;
73397;SDS011;63606;52.328;20.964;2022-09-30T15:23:48;7.53;;;4.60;;
73397;SDS011;63606;52.328;20.964;2022-09-30T15:26:16;8.38;;;4.72;;
73397;SDS011;63606;52.328;20.964;2022-09-30T15:28:43;10.75;;;5.22;;
73397;SDS011;63606;52.328;20.964;2022-09-30T15:31:20;9.30;;;5.00;;
73397;SDS011;63606;52.328;20.964;2022-09-30T15:34:03;8.65;;;4.85;;
73397;SDS011;63606;52.328;20.964;2022-09-30T15:36:31;10.77;;;4.97;;
73397;SDS011;63606;52.328;20.964;2022-09-30T15:38:59;9.95;;;5.97;;
73397;SDS011;63606;52.328;20.964;2022-09-30T15:41:25;9.43;;;5.50;;
73397;SDS011;63606;52.328;20.964;2022-09-30T15:43:51;11.05;;;6.40;;
73397;SDS011;63606;52.328;20.964;2022-09-30T15:46:27;11.55;;;5.93;;
73397;SDS011;63606;52.328;20.964;2022-09-30T15:49:01;9.52;;;5.15;;
73397;SDS011;63606;52.328;20.964;2022-09-30T15:51:39;11.23;;;5.82;;
73397;SDS011;63606;52.328;20.964;2022-09-30T15:59:18;10.30;;;5.60;;
73397;SDS011;63606;52.328;20.964;2022-09-30T16:01:47;11.18;;;5.85;;
73397;SDS011;63606;52.328;20.964;2022-09-30T16:14:28;11.95;;;6.38;;
73397;SDS011;63606;52.328;20.964;2022-09-30T16:16:58;11.30;;;6.75;;
73397;SDS011;63606;52.328;20.964;2022-09-30T16:19:27;12.52;;;6.00;;
73397;SDS011;63606;52.328;20.964;2022-09-30T16:21:54;12.73;;;6.45;;
73397;SDS011;63606;52.328;20.964;2022-09-30T16:26:45;12.15;;;5.95;;
73397;SDS011;63606;52.328;20.964;2022-09-30T16:29:11;10.35;;;5.70;;
73397;SDS011;63606;52.328;20.964;2022-09-30T16:31:36;10.43;;;5.75;;
73397;SDS011;63606;52.328;20.964;2022-09-30T16:34:02;12.38;;;6.68;;
73397;SDS011;63606;52.328;20.964;2022-09-30T16:36:27;14.85;;;6.70;;
73397;SDS011;63606;52.328;20.964;2022-09-30T16:38:53;12.65;;;7.20;;
73397;SDS011;63606;52.328;20.964;2022-09-30T16:41:18;14.90;;;7.80;;
73397;SDS011;63606;52.328;20.964;2022-09-30T16:43:43;12.90;;;7.18;;
73397;SDS011;63606;52.328;20.964;2022-09-30T16:46:09;15.77;;;8.95;;
73397;SDS011;63606;52.328;20.964;2022-09-30T16:48:34;17.60;;;9.10;;
73397;SDS011;63606;52.328;20.964;2022-09-30T16:51:02;13.40;;;8.23;;
73397;SDS011;63606;52.328;20.964;2022-09-30T16:53:38;13.93;;;8.45;;
73397;SDS011;63606;52.328;20.964;2022-09-30T16:56:05;15.48;;;8.27;;
73397;SDS011;63606;52.328;20.964;2022-09-30T16:58:37;13.48;;;7.90;;
73397;SDS011;63606;52.328;20.964;2022-09-30T17:01:03;14.65;;;8.90;;
73397;SDS011;63606;52.328;20.964;2022-09-30T17:03:28;15.40;;;8.82;;
73397;SDS011;63606;52.328;20.964;2022-09-30T17:05:55;13.77;;;7.97;;
73397;SDS011;63606;52.328;20.964;2022-09-30T17:08:21;14.65;;;8.77;;
73397;SDS011;63606;52.328;20.964;2022-09-30T17:10:49;18.50;;;9.70;;
73397;SDS011;63606;52.328;20.964;2022-09-30T17:13:16;19.35;;;10.27;;
73397;SDS011;63606;52.328;20.964;2022-09-30T17:15:46;16.55;;;10.15;;
73397;SDS011;63606;52.328;20.964;2022-09-30T17:18:13;19.38;;;11.13;;
73397;SDS011;63606;52.328;20.964;2022-09-30T17:20:41;21.55;;;11.25;;
73397;SDS011;63606;52.328;20.964;2022-09-30T17:23:09;21.90;;;10.18;;
73397;SDS011;63606;52.328;20.964;2022-09-30T17:25:39;18.50;;;9.10;;
73397;SDS011;63606;52.328;20.964;2022-09-30T17:28:06;13.82;;;8.63;;
73397;SDS011;63606;52.328;20.964;2022-09-30T17:30:33;16.17;;;9.10;;
73397;SDS011;63606;52.328;20.964;2022-09-30T17:32:58;16.88;;;9.15;;
73397;SDS011;63606;52.328;20.964;2022-09-30T17:35:24;15.68;;;8.82;;
73397;SDS011;63606;52.328;20.964;2022-09-30T17:37:49;22.23;;;12.82;;
73397;SDS011;63606;52.328;20.964;2022-09-30T17:40:15;18.38;;;9.52;;
73397;SDS011;63606;52.328;20.964;2022-09-30T17:42:59;17.25;;;8.93;;
73397;SDS011;63606;52.328;20.964;2022-09-30T17:45:40;18.92;;;8.98;;
73397;SDS011;63606;52.328;20.964;2022-09-30T17:48:08;16.88;;;8.90;;
73397;SDS011;63606;52.328;20.964;2022-09-30T17:50:38;13.55;;;8.38;;
73397;SDS011;63606;52.328;20.964;2022-09-30T17:53:06;17.25;;;10.15;;
73397;SDS011;63606;52.328;20.964;2022-09-30T17:55:32;20.30;;;11.15;;
73397;SDS011;63606;52.328;20.964;2022-09-30T17:57:59;21.58;;;12.10;;
73397;SDS011;63606;52.328;20.964;2022-09-30T18:00:27;22.90;;;11.75;;
73397;SDS011;63606;52.328;20.964;2022-09-30T18:02:53;23.60;;;12.38;;
73397;SDS011;63606;52.328;20.964;2022-09-30T18:05:19;24.27;;;12.30;;
73397;SDS011;63606;52.328;20.964;2022-09-30T18:07:45;24.98;;;12.43;;
73397;SDS011;63606;52.328;20.964;2022-09-30T18:10:11;26.30;;;15.02;;
73397;SDS011;63606;52.328;20.964;2022-09-30T18:12:38;25.23;;;13.75;;
73397;SDS011;63606;52.328;20.964;2022-09-30T18:15:04;27.63;;;15.07;;
73397;SDS011;63606;52.328;20.964;2022-09-30T18:17:30;25.92;;;15.32;;
73397;SDS011;63606;52.328;20.964;2022-09-30T18:19:56;30.23;;;15.23;;
73397;SDS011;63606;52.328;20.964;2022-09-30T18:22:22;27.45;;;15.40;;
73397;SDS011;63606;52.328;20.964;2022-09-30T18:24:47;25.48;;;15.23;;
73397;SDS011;63606;52.328;20.964;2022-09-30T18:27:31;27.42;;;16.10;;
73397;SDS011;63606;52.328;20.964;2022-09-30T18:30:00;25.15;;;13.77;;
73397;SDS011;63606;52.328;20.964;2022-09-30T18:32:28;28.80;;;15.50;;
73397;SDS011;63606;52.328;20.964;2022-09-30T18:34:54;28.80;;;15.88;;
73397;SDS011;63606;52.328;20.964;2022-09-30T18:39:49;27.35;;;14.23;;